sensor_id;sensor_type;location;lat;lon;timestamp;P1;durP1;ratioP1;P2;durP2;ratioP2
39022;SDS011;25908;51.984;5.928;2023-10-09T14:28:35;11.88;;;4.00;;
39022;SDS011;25908;51.984;5.928;2023-10-09T14:31:02;13.32;;;3.97;;
39022;SDS011;25908;51.984;5.928;2023-10-09T14:33:29;13.25;;;4.13;;
39022;SDS011;25908;51.984;5.928;2023-10-09T14:36:01;11.05;;;4.78;;
39022;SDS011;25908;51.984;5.928;2023-10-09T14:38:27;8.68;;;4.10;;
39022;SDS011;25908;51.984;5.928;2023-10-09T14:43:27;15.75;;;4.80;;
39022;SDS011;25908;51.984;5.928;2023-10-09T14:45:53;11.93;;;4.30;;
39022;SDS011;25908;51.984;5.928;2023-10-09T14:48:19;13.70;;;3.90;;
39022;SDS011;25908;51.984;5.928;2023-10-09T14:50:52;13.23;;;4.57;;
39022;SDS011;25908;51.984;5.928;2023-10-09T14:53:18;9.40;;;4.43;;
39022;SDS011;25908;51.984;5.928;2023-10-09T14:55:54;17.42;;;5.05;;
39022;SDS011;25908;51.984;5.928;2023-10-09T14:58:20;11.68;;;4.13;;
39022;SDS011;25908;51.984;5.928;2023-10-09T15:13:39;10.52;;;5.57;;
39022;SDS011;25908;51.984;5.928;2023-10-09T17:50:24;14.07;;;6.55;;
39022;SDS011;25908;51.984;5.928;2023-10-09T17:54:02;16.13;;;6.50;;
39022;SDS011;25908;51.984;5.928;2023-10-09T17:56:27;10.70;;;5.65;;
39022;SDS011;25908;51.984;5.928;2023-10-09T17:58:53;15.60;;;6.85;;
39022;SDS011;25908;51.984;5.928;2023-10-09T18:01:19;17.65;;;6.82;;
39022;SDS011;25908;51.984;5.928;2023-10-09T18:03:49;14.55;;;7.38;;
39022;SDS011;25908;51.984;5.928;2023-10-09T18:06:15;12.20;;;7.03;;
39022;SDS011;25908;51.984;5.928;2023-10-09T18:08:41;13.95;;;6.45;;
39022;SDS011;25908;51.984;5.928;2023-10-09T18:11:07;15.98;;;6.70;;
39022;SDS011;25908;51.984;5.928;2023-10-09T18:13:33;13.95;;;7.00;;
39022;SDS011;25908;51.984;5.928;2023-10-09T18:16:04;12.98;;;7.30;;
39022;SDS011;25908;51.984;5.928;2023-10-09T18:18:37;11.70;;;5.93;;
39022;SDS011;25908;51.984;5.928;2023-10-09T18:21:06;19.08;;;8.43;;
39022;SDS011;25908;51.984;5.928;2023-10-09T18:23:34;13.40;;;6.30;;
39022;SDS011;25908;51.984;5.928;2023-10-09T18:26:00;16.75;;;7.47;;
39022;SDS011;25908;51.984;5.928;2023-10-09T18:28:29;12.25;;;7.25;;
39022;SDS011;25908;51.984;5.928;2023-10-09T18:30:55;13.73;;;6.85;;
39022;SDS011;25908;51.984;5.928;2023-10-09T18:33:20;14.93;;;7.80;;
39022;SDS011;25908;51.984;5.928;2023-10-09T18:35:48;14.93;;;7.25;;
39022;SDS011;25908;51.984;5.928;2023-10-09T18:38:13;12.15;;;7.15;;
39022;SDS011;25908;51.984;5.928;2023-10-09T18:40:41;20.55;;;7.13;;
39022;SDS011;25908;51.984;5.928;2023-10-09T18:45:38;14.70;;;6.95;;
39022;SDS011;25908;51.984;5.928;2023-10-09T18:48:04;14.00;;;7.20;;
39022;SDS011;25908;51.984;5.928;2023-10-09T18:50:36;17.83;;;8.05;;
39022;SDS011;25908;51.984;5.928;2023-10-09T18:53:06;17.35;;;8.00;;
39022;SDS011;25908;51.984;5.928;2023-10-09T18:55:35;16.95;;;7.47;;
39022;SDS011;25908;51.984;5.928;2023-10-09T18:58:01;12.15;;;7.03;;
39022;SDS011;25908;51.984;5.928;2023-10-09T19:00:27;16.38;;;7.03;;
39022;SDS011;25908;51.984;5.928;2023-10-09T19:02:55;11.80;;;6.45;;
39022;SDS011;25908;51.984;5.928;2023-10-09T19:05:24;12.60;;;6.57;;
39022;SDS011;25908;51.984;5.928;2023-10-09T19:07:53;13.02;;;6.25;;
39022;SDS011;25908;51.984;5.928;2023-10-09T19:10:19;16.27;;;6.70;;
39022;SDS011;25908;51.984;5.928;2023-10-09T19:12:46;11.63;;;6.05;;
39022;SDS011;25908;51.984;5.928;2023-10-09T19:15:13;11.57;;;6.00;;
39022;SDS011;25908;51.984;5.928;2023-10-09T19:17:39;11.57;;;6.30;;
39022;SDS011;25908;51.984;5.928;2023-10-09T19:20:08;13.98;;;6.95;;
39022;SDS011;25908;51.984;5.928;2023-10-09T19:22:41;14.95;;;7.43;;
39022;SDS011;25908;51.984;5.928;2023-10-09T19:25:07;15.23;;;6.40;;
39022;SDS011;25908;51.984;5.928;2023-10-09T19:27:41;12.13;;;6.60;;
39022;SDS011;25908;51.984;5.928;2023-10-09T19:30:07;11.43;;;6.13;;
39022;SDS011;25908;51.984;5.928;2023-10-09T19:32:37;13.05;;;5.38;;
39022;SDS011;25908;51.984;5.928;2023-10-09T19:35:06;16.77;;;6.70;;
39022;SDS011;25908;51.984;5.928;2023-10-09T19:37:32;17.67;;;6.32;;
39022;SDS011;25908;51.984;5.928;2023-10-09T19:39:58;18.20;;;6.47;;
39022;SDS011;25908;51.984;5.928;2023-10-09T19:42:23;17.95;;;6.68;;
39022;SDS011;25908;51.984;5.928;2023-10-09T19:44:49;13.50;;;6.72;;
39022;SDS011;25908;51.984;5.928;2023-10-09T19:47:17;16.63;;;7.80;;
39022;SDS011;25908;51.984;5.928;2023-10-09T19:49:44;18.17;;;7.00;;
39022;SDS011;25908;51.984;5.928;2023-10-09T19:52:09;15.20;;;6.35;;
39022;SDS011;25908;51.984;5.928;2023-10-09T19:54:35;19.25;;;7.60;;
39022;SDS011;25908;51.984;5.928;2023-10-09T19:57:02;13.20;;;6.72;;
39022;SDS011;25908;51.984;5.928;2023-10-09T19:59:32;18.45;;;6.78;;
39022;SDS011;25908;51.984;5.928;2023-10-09T20:02:00;17.05;;;7.10;;
39022;SDS011;25908;51.984;5.928;2023-10-09T20:04:28;13.73;;;6.20;;
39022;SDS011;25908;51.984;5.928;2023-10-09T20:06:57;14.80;;;6.55;;
39022;SDS011;25908;51.984;5.928;2023-10-09T20:09:25;13.93;;;6.68;;
39022;SDS011;25908;51.984;5.928;2023-10-09T20:11:51;14.77;;;6.45;;
39022;SDS011;25908;51.984;5.928;2023-10-09T20:14:17;15.30;;;6.43;;
39022;SDS011;25908;51.984;5.928;2023-10-09T20:16:43;11.70;;;6.07;;
39022;SDS011;25908;51.984;5.928;2023-10-09T20:19:10;15.10;;;6.85;;
39022;SDS011;25908;51.984;5.928;2023-10-09T20:21:36;12.45;;;5.80;;
39022;SDS011;25908;51.984;5.928;2023-10-09T20:24:02;13.65;;;6.35;;
39022;SDS011;25908;51.984;5.928;2023-10-09T20:26:29;12.07;;;5.80;;
39022;SDS011;25908;51.984;5.928;2023-10-09T20:28:54;12.75;;;5.88;;
39022;SDS011;25908;51.984;5.928;2023-10-09T20:31:20;12.93;;;6.18;;
39022;SDS011;25908;51.984;5.928;2023-10-09T20:33:46;15.07;;;6.15;;
39022;SDS011;25908;51.984;5.928;2023-10-09T20:36:12;10.77;;;5.45;;
39022;SDS011;25908;51.984;5.928;2023-10-09T20:38:41;13.60;;;6.22;;
39022;SDS011;25908;51.984;5.928;2023-10-09T20:41:07;17.13;;;6.28;;
39022;SDS011;25908;51.984;5.928;2023-10-09T20:43:37;17.63;;;6.63;;
39022;SDS011;25908;51.984;5.928;2023-10-09T20:46:06;16.58;;;6.70;;
39022;SDS011;25908;51.984;5.928;2023-10-09T20:48:32;11.38;;;5.55;;
39022;SDS011;25908;51.984;5.928;2023-10-09T20:50:58;13.73;;;5.45;;
39022;SDS011;25908;51.984;5.928;2023-10-09T20:53:25;11.05;;;5.10;;
39022;SDS011;25908;51.984;5.928;2023-10-09T20:55:51;12.45;;;5.35;;
39022;SDS011;25908;51.984;5.928;2023-10-09T20:58:20;9.88;;;5.80;;
39022;SDS011;25908;51.984;5.928;2023-10-09T21:00:48;10.48;;;5.63;;
39022;SDS011;25908;51.984;5.928;2023-10-09T21:03:14;9.80;;;5.40;;
39022;SDS011;25908;51.984;5.928;2023-10-09T21:05:40;9.50;;;5.63;;
39022;SDS011;25908;51.984;5.928;2023-10-09T21:08:06;11.80;;;5.72;;
39022;SDS011;25908;51.984;5.928;2023-10-09T21:10:33;12.00;;;5.25;;
39022;SDS011;25908;51.984;5.928;2023-10-09T21:13:02;14.73;;;5.85;;
39022;SDS011;25908;51.984;5.928;2023-10-09T21:15:27;7.80;;;4.80;;
39022;SDS011;25908;51.984;5.928;2023-10-09T21:17:55;13.40;;;5.95;;
39022;SDS011;25908;51.984;5.928;2023-10-09T21:20:21;12.18;;;5.38;;
39022;SDS011;25908;51.984;5.928;2023-10-09T21:22:53;7.60;;;4.63;;
39022;SDS011;25908;51.984;5.928;2023-10-09T21:25:20;9.65;;;5.13;;
39022;SDS011;25908;51.984;5.928;2023-10-09T21:27:47;10.65;;;5.25;;
39022;SDS011;25908;51.984;5.928;2023-10-09T21:30:13;13.85;;;5.78;;
39022;SDS011;25908;51.984;5.928;2023-10-09T21:32:42;11.48;;;5.25;;
39022;SDS011;25908;51.984;5.928;2023-10-09T21:35:12;9.57;;;5.50;;
39022;SDS011;25908;51.984;5.928;2023-10-09T21:37:45;13.27;;;6.03;;
39022;SDS011;25908;51.984;5.928;2023-10-09T21:40:11;9.43;;;5.78;;
39022;SDS011;25908;51.984;5.928;2023-10-09T21:42:38;11.75;;;5.45;;
39022;SDS011;25908;51.984;5.928;2023-10-09T21:45:05;9.00;;;5.15;;
39022;SDS011;25908;51.984;5.928;2023-10-09T21:47:32;10.20;;;5.13;;
39022;SDS011;25908;51.984;5.928;2023-10-09T21:49:59;9.25;;;5.03;;
39022;SDS011;25908;51.984;5.928;2023-10-09T21:52:24;11.15;;;5.60;;
39022;SDS011;25908;51.984;5.928;2023-10-09T21:54:50;9.20;;;5.22;;
39022;SDS011;25908;51.984;5.928;2023-10-09T21:57:15;9.00;;;4.90;;
39022;SDS011;25908;51.984;5.928;2023-10-09T21:59:41;8.63;;;5.20;;
39022;SDS011;25908;51.984;5.928;2023-10-09T22:02:07;9.70;;;4.93;;
39022;SDS011;25908;51.984;5.928;2023-10-09T22:04:33;9.73;;;5.68;;
39022;SDS011;25908;51.984;5.928;2023-10-09T22:06:58;9.07;;;5.10;;
39022;SDS011;25908;51.984;5.928;2023-10-09T22:09:24;8.80;;;5.40;;
39022;SDS011;25908;51.984;5.928;2023-10-09T22:11:49;9.48;;;4.55;;
39022;SDS011;25908;51.984;5.928;2023-10-09T22:14:16;8.75;;;5.13;;
39022;SDS011;25908;51.984;5.928;2023-10-09T22:16:41;8.20;;;4.97;;
39022;SDS011;25908;51.984;5.928;2023-10-09T22:19:07;12.63;;;5.35;;
39022;SDS011;25908;51.984;5.928;2023-10-09T22:21:39;11.57;;;5.55;;
39022;SDS011;25908;51.984;5.928;2023-10-09T22:24:05;9.70;;;5.63;;
39022;SDS011;25908;51.984;5.928;2023-10-09T22:26:34;9.98;;;5.47;;
39022;SDS011;25908;51.984;5.928;2023-10-09T22:29:03;8.38;;;4.78;;
39022;SDS011;25908;51.984;5.928;2023-10-09T22:31:30;11.40;;;5.32;;
39022;SDS011;25908;51.984;5.928;2023-10-09T22:33:55;10.73;;;5.35;;
39022;SDS011;25908;51.984;5.928;2023-10-09T22:36:29;7.40;;;4.78;;
39022;SDS011;25908;51.984;5.928;2023-10-09T22:38:54;11.75;;;5.50;;
39022;SDS011;25908;51.984;5.928;2023-10-09T22:41:23;9.48;;;5.35;;
39022;SDS011;25908;51.984;5.928;2023-10-09T22:43:50;9.23;;;5.43;;
39022;SDS011;25908;51.984;5.928;2023-10-09T22:46:16;12.18;;;6.05;;
39022;SDS011;25908;51.984;5.928;2023-10-09T22:48:46;12.15;;;6.57;;
39022;SDS011;25908;51.984;5.928;2023-10-09T22:51:16;13.85;;;5.40;;
39022;SDS011;25908;51.984;5.928;2023-10-09T22:54:05;10.00;;;5.70;;
39022;SDS011;25908;51.984;5.928;2023-10-09T22:56:36;11.32;;;5.85;;
39022;SDS011;25908;51.984;5.928;2023-10-09T22:59:02;8.50;;;5.10;;
39022;SDS011;25908;51.984;5.928;2023-10-09T23:01:45;10.63;;;6.13;;
39022;SDS011;25908;51.984;5.928;2023-10-09T23:04:20;9.35;;;5.25;;
39022;SDS011;25908;51.984;5.928;2023-10-09T23:06:54;10.05;;;5.72;;
39022;SDS011;25908;51.984;5.928;2023-10-09T23:09:28;9.85;;;5.55;;
39022;SDS011;25908;51.984;5.928;2023-10-09T23:11:57;10.20;;;5.68;;
39022;SDS011;25908;51.984;5.928;2023-10-09T23:14:24;12.32;;;6.18;;
39022;SDS011;25908;51.984;5.928;2023-10-09T23:16:50;10.60;;;5.70;;
39022;SDS011;25908;51.984;5.928;2023-10-09T23:19:42;10.13;;;5.93;;
39022;SDS011;25908;51.984;5.928;2023-10-09T23:22:19;11.57;;;6.20;;
39022;SDS011;25908;51.984;5.928;2023-10-09T23:25:05;12.40;;;6.18;;
39022;SDS011;25908;51.984;5.928;2023-10-09T23:27:52;10.63;;;6.38;;
39022;SDS011;25908;51.984;5.928;2023-10-09T23:30:21;10.05;;;5.60;;
39022;SDS011;25908;51.984;5.928;2023-10-09T23:33:05;14.95;;;6.22;;
39022;SDS011;25908;51.984;5.928;2023-10-09T23:35:37;7.95;;;5.07;;
39022;SDS011;25908;51.984;5.928;2023-10-09T23:38:15;9.85;;;5.65;;
39022;SDS011;25908;51.984;5.928;2023-10-09T23:40:45;12.25;;;5.82;;
39022;SDS011;25908;51.984;5.928;2023-10-09T23:43:12;11.35;;;6.47;;
39022;SDS011;25908;51.984;5.928;2023-10-09T23:45:41;8.82;;;5.40;;
39022;SDS011;25908;51.984;5.928;2023-10-09T23:48:10;9.18;;;5.78;;
39022;SDS011;25908;51.984;5.928;2023-10-09T23:50:49;11.13;;;5.65;;
39022;SDS011;25908;51.984;5.928;2023-10-09T23:53:25;10.45;;;6.18;;
39022;SDS011;25908;51.984;5.928;2023-10-09T23:56:01;11.38;;;6.15;;
39022;SDS011;25908;51.984;5.928;2023-10-09T23:58:42;10.10;;;5.85;;
